Time;durP1;ratioP1;P1;durP2;ratioP2;P2;SDS_P1;SDS_P2;PMS_P1;PMS_P2;Temp;Humidity;BMP_temperature;BMP_pressure;BME280_temperature;BME280_humidity;BME280_pressure;Samples;Min_cycle;Max_cycle;Signal;HPM_P1;HPM_P2
2021/06/15 00:00:20;;;;;;;9.57;8.67;;;;;;;;;;5036992;28;20541;-78
2021/06/15 00:02:50;;;;;;;10.20;8.30;;;;;;;;;;5035961;28;20452;-77
2021/06/15 00:05:17;;;;;;;9.57;7.50;;;;;;;;;;5034248;28;20477;-78
2021/06/15 00:07:45;;;;;;;8.97;8.00;;;;;;;;;;5037908;28;20449;-78
2021/06/15 00:10:14;;;;;;;10.57;8.40;;;;;;;;;;5035542;28;20459;-78
2021/06/15 00:12:41;;;;;;;8.60;7.33;;;;;;;;;;5036994;28;20448;-79
2021/06/15 00:15:12;;;;;;;8.63;7.80;;;;;;;;;;5037102;28;20518;-78
2021/06/15 00:17:40;;;;;;;8.20;7.10;;;;;;;;;;5036013;28;20555;-78
2021/06/15 00:20:07;;;;;;;13.50;8.13;;;;;;;;;;5039192;28;20453;-78
2021/06/15 00:22:35;;;;;;;8.50;7.70;;;;;;;;;;5036054;28;20503;-78
2021/06/15 00:25:02;;;;;;;11.63;7.40;;;;;;;;;;5034557;28;20520;-78
2021/06/15 00:27:30;;;;;;;11.23;7.43;;;;;;;;;;5033166;28;20441;-80
2021/06/15 00:29:57;;;;;;;10.40;8.90;;;;;;;;;;5035769;28;20517;-79
2021/06/15 00:32:26;;;;;;;11.50;8.27;;;;;;;;;;5035267;28;20507;-78
2021/06/15 00:34:53;;;;;;;8.20;7.50;;;;;;;;;;5041533;28;20466;-78
2021/06/15 00:37:20;;;;;;;9.33;7.50;;;;;;;;;;5047879;28;20524;-78
2021/06/15 00:39:48;;;;;;;9.17;8.03;;;;;;;;;;5038277;28;20485;-79
2021/06/15 00:42:16;;;;;;;10.60;7.60;;;;;;;;;;5039674;28;20449;-78
2021/06/15 00:44:44;;;;;;;10.83;7.67;;;;;;;;;;5044615;28;20438;-78
2021/06/15 00:47:12;;;;;;;8.50;7.70;;;;;;;;;;5044417;28;20462;-78
2021/06/15 00:49:41;;;;;;;8.37;7.67;;;;;;;;;;5041109;28;20492;-77
2021/06/15 00:52:08;;;;;;;9.50;7.70;;;;;;;;;;5041288;28;20463;-78
2021/06/15 00:54:36;;;;;;;11.13;7.93;;;;;;;;;;5042012;28;21024;-79
2021/06/15 00:57:03;;;;;;;9.20;8.30;;;;;;;;;;5044905;28;20464;-78
2021/06/15 00:59:31;;;;;;;8.90;8.07;;;;;;;;;;5041441;28;20548;-78
2021/06/15 01:01:58;;;;;;;10.47;8.17;;;;;;;;;;5037974;28;20448;-78
2021/06/15 01:04:25;;;;;;;9.23;8.00;;;;;;;;;;5042863;28;20459;-79
2021/06/15 01:07:00;;;;;;;8.80;7.67;;;;;;;;;;5034470;28;20492;-78
2021/06/15 01:09:31;;;;;;;8.10;7.40;;;;;;;;;;5037202;28;20462;-78
2021/06/15 01:12:04;;;;;;;8.30;7.53;;;;;;;;;;5035245;28;20575;-75
2021/06/15 01:14:40;;;;;;;8.50;7.50;;;;;;;;;;5034999;28;20816;-78
2021/06/15 01:17:09;;;;;;;9.57;8.43;;;;;;;;;;5032389;28;20480;-77
2021/06/15 01:19:42;;;;;;;9.10;8.20;;;;;;;;;;5032529;28;20492;-78
2021/06/15 01:22:16;;;;;;;10.23;8.60;;;;;;;;;;5037954;28;20520;-77
2021/06/15 01:24:47;;;;;;;8.47;7.77;;;;;;;;;;5034174;28;21009;-78
2021/06/15 01:27:32;;;;;;;8.80;8.00;;;;;;;;;;5035355;28;20452;-78
2021/06/15 01:30:03;;;;;;;9.87;7.87;;;;;;;;;;5035496;28;20444;-77
2021/06/15 01:32:31;;;;;;;9.50;8.33;;;;;;;;;;5037870;28;20525;-75
2021/06/15 01:34:59;;;;;;;9.10;8.30;;;;;;;;;;5033021;28;20484;-78
2021/06/15 01:37:30;;;;;;;8.70;7.83;;;;;;;;;;5036432;28;20819;-78
2021/06/15 01:40:00;;;;;;;8.77;7.87;;;;;;;;;;5036698;28;20444;-79
2021/06/15 01:42:31;;;;;;;8.00;7.20;;;;;;;;;;5039094;28;20565;-78
2021/06/15 01:45:01;;;;;;;9.47;8.30;;;;;;;;;;5038164;28;20534;-79
2021/06/15 01:47:29;;;;;;;8.63;7.57;;;;;;;;;;5038672;28;20563;-79
2021/06/15 01:49:59;;;;;;;9.33;8.40;;;;;;;;;;5034385;28;20546;-79
2021/06/15 01:52:30;;;;;;;11.80;8.70;;;;;;;;;;5031527;28;20472;-78
2021/06/15 01:54:58;;;;;;;12.23;9.00;;;;;;;;;;5036410;28;20462;-79
2021/06/15 01:57:25;;;;;;;8.20;7.40;;;;;;;;;;5040985;28;20536;-79
2021/06/15 01:59:54;;;;;;;8.50;7.67;;;;;;;;;;5046746;28;20452;-79
2021/06/15 02:02:21;;;;;;;9.90;8.43;;;;;;;;;;5040561;28;20448;-78
2021/06/15 02:04:51;;;;;;;8.43;7.63;;;;;;;;;;5039618;28;20447;-78
2021/06/15 02:07:21;;;;;;;9.00;7.90;;;;;;;;;;5035122;28;20453;-78
2021/06/15 02:09:51;;;;;;;9.90;8.10;;;;;;;;;;5035792;28;20456;-78
2021/06/15 02:12:22;;;;;;;9.57;7.80;;;;;;;;;;5037274;28;20802;-78
2021/06/15 02:14:49;;;;;;;8.77;7.50;;;;;;;;;;5042344;28;21032;-79
2021/06/15 02:17:17;;;;;;;7.87;7.17;;;;;;;;;;5039935;28;20490;-79
2021/06/15 02:19:45;;;;;;;10.70;7.90;;;;;;;;;;5037896;28;20454;-78
2021/06/15 02:22:16;;;;;;;10.87;8.60;;;;;;;;;;5032129;28;20497;-79
2021/06/15 02:24:46;;;;;;;11.60;8.10;;;;;;;;;;5037605;28;20493;-79
2021/06/15 02:27:15;;;;;;;8.80;8.00;;;;;;;;;;5038978;28;21038;-79
2021/06/15 02:29:42;;;;;;;9.10;7.90;;;;;;;;;;5034950;28;21021;-78
2021/06/15 02:32:10;;;;;;;8.90;8.10;;;;;;;;;;5049403;28;20472;-78
2021/06/15 02:34:39;;;;;;;8.97;8.13;;;;;;;;;;5039367;28;20478;-79
2021/06/15 02:37:08;;;;;;;8.60;7.50;;;;;;;;;;5036051;28;20468;-79
2021/06/15 02:39:40;;;;;;;10.23;8.23;;;;;;;;;;5036046;28;20466;-78
2021/06/15 02:42:08;;;;;;;10.03;8.93;;;;;;;;;;5034365;28;20458;-80
2021/06/15 02:44:38;;;;;;;11.53;8.60;;;;;;;;;;5036715;28;20499;-79
2021/06/15 02:47:07;;;;;;;8.30;7.60;;;;;;;;;;5038169;28;20453;-79
2021/06/15 02:49:37;;;;;;;9.20;8.30;;;;;;;;;;5029319;28;20447;-79
2021/06/15 02:52:08;;;;;;;10.70;8.20;;;;;;;;;;5036215;28;20500;-79
2021/06/15 02:54:40;;;;;;;9.13;8.33;;;;;;;;;;5038362;28;20465;-78
2021/06/15 02:57:08;;;;;;;9.50;8.60;;;;;;;;;;5037728;28;20452;-79
2021/06/15 02:59:36;;;;;;;9.50;8.60;;;;;;;;;;5030262;28;20548;-79
2021/06/15 03:02:04;;;;;;;9.60;8.33;;;;;;;;;;5037659;28;20949;-79
2021/06/15 03:04:31;;;;;;;8.53;7.63;;;;;;;;;;5040516;28;20455;-79
2021/06/15 03:06:58;;;;;;;9.97;7.87;;;;;;;;;;5044681;28;20446;-79
2021/06/15 03:09:27;;;;;;;10.30;8.00;;;;;;;;;;5042248;28;20484;-79
2021/06/15 03:12:08;;;;;;;12.50;8.90;;;;;;;;;;5037056;28;20875;-79
2021/06/15 03:14:36;;;;;;;9.07;8.03;;;;;;;;;;5033969;28;20913;-78
2021/06/15 03:17:07;;;;;;;8.83;7.93;;;;;;;;;;5033168;28;20853;-79
2021/06/15 03:19:38;;;;;;;10.03;8.10;;;;;;;;;;5031889;28;20453;-80
2021/06/15 03:22:06;;;;;;;9.83;8.83;;;;;;;;;;5039071;28;20522;-80
2021/06/15 03:24:36;;;;;;;11.03;8.60;;;;;;;;;;5039089;28;20464;-79
2021/06/15 03:27:07;;;;;;;9.40;8.03;;;;;;;;;;5031478;28;20463;-79
2021/06/15 03:29:36;;;;;;;9.87;8.87;;;;;;;;;;5034327;28;20446;-78
2021/06/15 03:32:07;;;;;;;8.30;7.50;;;;;;;;;;5033267;28;20471;-79
2021/06/15 03:34:36;;;;;;;8.30;7.57;;;;;;;;;;5035343;28;20503;-79
2021/06/15 03:37:06;;;;;;;11.13;8.63;;;;;;;;;;5033372;28;20486;-79
2021/06/15 03:39:39;;;;;;;13.10;8.53;;;;;;;;;;5034426;28;20536;-79
2021/06/15 03:42:10;;;;;;;10.13;8.13;;;;;;;;;;5039482;28;20487;-79
2021/06/15 03:44:39;;;;;;;9.00;8.10;;;;;;;;;;5044100;28;20444;-79
2021/06/15 03:47:07;;;;;;;8.97;8.10;;;;;;;;;;5044025;28;20466;-79
2021/06/15 03:49:34;;;;;;;8.40;7.60;;;;;;;;;;5050163;28;20440;-79
2021/06/15 03:52:04;;;;;;;7.73;7.03;;;;;;;;;;5041546;28;20486;-79
2021/06/15 03:54:32;;;;;;;8.87;7.97;;;;;;;;;;5040226;28;21090;-79
2021/06/15 03:57:01;;;;;;;8.57;7.77;;;;;;;;;;5034792;28;20994;-79
2021/06/15 03:59:32;;;;;;;8.77;7.97;;;;;;;;;;5037017;28;20446;-79
2021/06/15 04:02:03;;;;;;;8.33;7.37;;;;;;;;;;5032404;28;20451;-78
2021/06/15 04:04:33;;;;;;;9.03;7.30;;;;;;;;;;5036036;28;20490;-80
2021/06/15 04:07:00;;;;;;;10.70;8.70;;;;;;;;;;5034018;28;20457;-79
2021/06/15 04:09:29;;;;;;;8.10;7.40;;;;;;;;;;5029581;28;20449;-79
2021/06/15 04:11:58;;;;;;;9.57;7.70;;;;;;;;;;5037192;28;20496;-78
2021/06/15 04:14:25;;;;;;;8.63;7.73;;;;;;;;;;5034373;28;20517;-78
2021/06/15 04:16:56;;;;;;;8.70;6.80;;;;;;;;;;5035819;28;20503;-78
2021/06/15 04:19:24;;;;;;;7.63;6.47;;;;;;;;;;5036969;28;20462;-79
2021/06/15 04:21:53;;;;;;;7.40;6.70;;;;;;;;;;5039791;28;20480;-79
2021/06/15 04:24:25;;;;;;;7.33;6.60;;;;;;;;;;5039496;28;20561;-80
2021/06/15 04:26:53;;;;;;;7.40;6.70;;;;;;;;;;5039511;28;20454;-79
2021/06/15 04:29:20;;;;;;;8.03;6.10;;;;;;;;;;5035622;28;20450;-79
2021/06/15 04:31:51;;;;;;;7.30;6.67;;;;;;;;;;5039802;28;20529;-79
2021/06/15 04:34:25;;;;;;;7.20;6.60;;;;;;;;;;5041492;28;20500;-80
2021/06/15 04:36:56;;;;;;;7.00;6.40;;;;;;;;;;5034406;28;20457;-80
2021/06/15 04:39:24;;;;;;;9.33;6.53;;;;;;;;;;5042792;28;20442;-80
2021/06/15 04:41:54;;;;;;;13.30;6.40;;;;;;;;;;5044116;28;20475;-81
2021/06/15 04:44:24;;;;;;;7.20;6.60;;;;;;;;;;5047161;28;20453;-79
2021/06/15 04:46:53;;;;;;;7.07;6.37;;;;;;;;;;5046154;28;20474;-80
2021/06/15 04:49:25;;;;;;;8.30;5.73;;;;;;;;;;5042539;28;20452;-80
2021/06/15 04:51:57;;;;;;;7.73;6.03;;;;;;;;;;5043842;28;20461;-80
2021/06/15 04:54:24;;;;;;;9.37;6.40;;;;;;;;;;5044272;28;20534;-81
2021/06/15 04:56:52;;;;;;;6.03;5.20;;;;;;;;;;5043889;28;20478;-82
2021/06/15 04:59:22;;;;;;;6.63;5.57;;;;;;;;;;5037019;28;20510;-81
2021/06/15 05:01:50;;;;;;;5.97;5.50;;;;;;;;;;5037235;28;20929;-81
2021/06/15 05:04:18;;;;;;;6.43;5.83;;;;;;;;;;5033678;28;20512;-81
2021/06/15 05:06:50;;;;;;;6.13;5.63;;;;;;;;;;5039430;28;20452;-81
2021/06/15 05:09:17;;;;;;;8.57;5.53;;;;;;;;;;5036617;28;20447;-82
2021/06/15 05:11:46;;;;;;;6.67;6.07;;;;;;;;;;5037687;28;20540;-81
2021/06/15 05:14:13;;;;;;;7.87;6.00;;;;;;;;;;5040823;28;20444;-81
2021/06/15 05:16:42;;;;;;;14.03;6.03;;;;;;;;;;5042360;28;20479;-82
2021/06/15 05:19:10;;;;;;;6.43;5.83;;;;;;;;;;5036918;28;20925;-82
2021/06/15 05:21:41;;;;;;;6.80;6.20;;;;;;;;;;5041043;28;20456;-80
2021/06/15 05:24:13;;;;;;;6.90;6.30;;;;;;;;;;5041490;28;20451;-81
2021/06/15 05:26:40;;;;;;;6.67;6.07;;;;;;;;;;5039569;28;20484;-81
2021/06/15 05:29:07;;;;;;;6.33;5.73;;;;;;;;;;5042525;28;20448;-81
2021/06/15 05:31:36;;;;;;;14.10;6.97;;;;;;;;;;5040973;28;20458;-81
2021/06/15 05:34:04;;;;;;;7.70;5.87;;;;;;;;;;5041208;28;20501;-82
2021/06/15 05:36:31;;;;;;;7.30;6.50;;;;;;;;;;5040364;28;20954;-81
2021/06/15 05:38:58;;;;;;;6.73;6.13;;;;;;;;;;5043111;28;20509;-81
2021/06/15 05:41:27;;;;;;;7.17;6.27;;;;;;;;;;5036926;28;20480;-81
2021/06/15 05:43:55;;;;;;;7.90;5.70;;;;;;;;;;5037539;28;20460;-81
2021/06/15 05:46:23;;;;;;;8.23;6.07;;;;;;;;;;5045614;28;21040;-81
2021/06/15 05:48:50;;;;;;;9.97;5.60;;;;;;;;;;5042979;28;20450;-81
2021/06/15 05:51:17;;;;;;;6.70;5.30;;;;;;;;;;5042264;28;20485;-82
2021/06/15 05:53:45;;;;;;;5.87;5.27;;;;;;;;;;5038162;28;20473;-81
2021/06/15 05:56:12;;;;;;;8.10;6.17;;;;;;;;;;5051356;28;20517;-81
2021/06/15 05:58:43;;;;;;;8.17;5.90;;;;;;;;;;5045164;28;20481;-80
2021/06/15 06:01:10;;;;;;;8.57;5.70;;;;;;;;;;5048848;28;20461;-81
2021/06/15 06:03:43;;;;;;;10.23;6.07;;;;;;;;;;5048210;28;20461;-82
2021/06/15 06:08:55;;;;;;;9.07;5.63;;;;;;;;;;5038875;28;20450;-79
2021/06/15 06:11:22;;;;;;;6.20;5.57;;;;;;;;;;5036504;28;20465;-79
2021/06/15 06:13:53;;;;;;;8.70;5.80;;;;;;;;;;5038273;28;20478;-78
2021/06/15 06:16:20;;;;;;;11.10;5.17;;;;;;;;;;5040132;28;20474;-79
2021/06/15 06:18:47;;;;;;;7.73;5.53;;;;;;;;;;5040362;28;20466;-78
2021/06/15 06:21:15;;;;;;;6.50;4.97;;;;;;;;;;5041494;28;20451;-79
2021/06/15 06:23:42;;;;;;;9.77;6.20;;;;;;;;;;5041150;28;20496;-79
2021/06/15 06:26:09;;;;;;;8.03;5.77;;;;;;;;;;5039176;28;20446;-78
2021/06/15 06:28:36;;;;;;;7.27;5.07;;;;;;;;;;5040720;28;20462;-78
2021/06/15 06:31:05;;;;;;;6.80;5.20;;;;;;;;;;5042121;28;20450;-80
2021/06/15 06:33:34;;;;;;;6.33;4.90;;;;;;;;;;5044383;28;20544;-80
2021/06/15 06:36:01;;;;;;;7.37;5.27;;;;;;;;;;5051678;28;20447;-79
2021/06/15 06:38:28;;;;;;;6.40;5.50;;;;;;;;;;5033901;28;20520;-78
2021/06/15 06:40:55;;;;;;;7.10;5.17;;;;;;;;;;5034202;28;20456;-77
2021/06/15 06:43:22;;;;;;;5.47;4.50;;;;;;;;;;5044402;28;20507;-79
2021/06/15 06:45:50;;;;;;;5.70;4.80;;;;;;;;;;5035051;28;20494;-76
2021/06/15 06:48:18;;;;;;;6.77;5.33;;;;;;;;;;5031858;28;20446;-77
2021/06/15 06:50:46;;;;;;;5.60;5.10;;;;;;;;;;5031391;28;20494;-77
2021/06/15 06:53:13;;;;;;;5.53;5.03;;;;;;;;;;5032865;28;20473;-78
2021/06/15 06:55:40;;;;;;;7.57;5.33;;;;;;;;;;5026547;28;20802;-76
2021/06/15 06:58:08;;;;;;;6.57;5.23;;;;;;;;;;5031790;28;20503;-76
2021/06/15 07:00:35;;;;;;;6.63;5.60;;;;;;;;;;5029468;28;20454;-76
2021/06/15 07:03:03;;;;;;;10.83;4.67;;;;;;;;;;5025377;28;20455;-77
2021/06/15 07:05:31;;;;;;;7.63;4.93;;;;;;;;;;5023724;28;20590;-76
2021/06/15 07:07:59;;;;;;;4.90;4.40;;;;;;;;;;5029605;28;20622;-76
2021/06/15 07:10:26;;;;;;;8.93;4.90;;;;;;;;;;5023856;28;20454;-76
2021/06/15 07:12:53;;;;;;;5.83;4.73;;;;;;;;;;5034296;28;20470;-76
2021/06/15 07:15:21;;;;;;;5.20;4.27;;;;;;;;;;5030318;28;20551;-77
2021/06/15 07:17:48;;;;;;;4.63;4.23;;;;;;;;;;5031102;28;20512;-77
2021/06/15 07:20:16;;;;;;;5.53;4.70;;;;;;;;;;5029910;28;20550;-77
2021/06/15 07:22:44;;;;;;;5.23;4.77;;;;;;;;;;5031573;28;20457;-77
2021/06/15 07:25:12;;;;;;;4.70;4.20;;;;;;;;;;5028589;28;20451;-77
2021/06/15 07:27:40;;;;;;;4.90;4.50;;;;;;;;;;5030635;28;20482;-76
2021/06/15 07:30:08;;;;;;;5.47;4.90;;;;;;;;;;5029272;28;20480;-77
2021/06/15 07:32:35;;;;;;;6.17;4.40;;;;;;;;;;5031427;28;20459;-77
2021/06/15 07:35:03;;;;;;;4.70;4.20;;;;;;;;;;5029240;28;20459;-76
2021/06/15 07:37:30;;;;;;;4.50;4.10;;;;;;;;;;5024920;28;20459;-77
2021/06/15 07:39:59;;;;;;;6.70;4.90;;;;;;;;;;5027114;28;20446;-77
2021/06/15 07:42:29;;;;;;;6.73;4.60;;;;;;;;;;5022128;28;20448;-76
2021/06/15 07:44:56;;;;;;;4.90;4.20;;;;;;;;;;5030556;28;20441;-76
2021/06/15 07:47:23;;;;;;;5.83;4.43;;;;;;;;;;5028460;28;20534;-76
2021/06/15 07:49:50;;;;;;;4.20;3.63;;;;;;;;;;5030926;28;20453;-78
2021/06/15 07:52:17;;;;;;;5.43;4.93;;;;;;;;;;5025561;28;20532;-76
2021/06/15 07:54:45;;;;;;;6.90;4.37;;;;;;;;;;5028671;28;20515;-76
2021/06/15 07:57:14;;;;;;;7.53;4.27;;;;;;;;;;5028551;28;20454;-75
2021/06/15 07:59:41;;;;;;;5.80;4.50;;;;;;;;;;5033957;28;20459;-76
2021/06/15 08:02:09;;;;;;;6.43;4.07;;;;;;;;;;5032377;28;20575;-76
2021/06/15 08:04:36;;;;;;;5.80;4.00;;;;;;;;;;5035761;28;21172;-76
2021/06/15 08:07:03;;;;;;;9.50;4.20;;;;;;;;;;5026325;28;20459;-76
2021/06/15 08:09:31;;;;;;;6.80;4.17;;;;;;;;;;5029744;28;20446;-76
2021/06/15 08:11:58;;;;;;;4.50;3.90;;;;;;;;;;5028207;28;20534;-76
2021/06/15 08:14:26;;;;;;;5.60;4.50;;;;;;;;;;5031948;28;20496;-76
2021/06/15 08:16:54;;;;;;;9.90;3.77;;;;;;;;;;5024902;28;20629;-76
2021/06/15 08:19:22;;;;;;;4.53;3.37;;;;;;;;;;5029950;28;20527;-76
2021/06/15 08:21:49;;;;;;;12.77;5.03;;;;;;;;;;5029242;28;20463;-77
2021/06/15 08:24:17;;;;;;;6.97;3.87;;;;;;;;;;5025588;28;20456;-77
2021/06/15 08:26:45;;;;;;;4.53;3.73;;;;;;;;;;5031119;28;20468;-76
2021/06/15 08:29:12;;;;;;;5.53;3.60;;;;;;;;;;5026675;28;20458;-76
2021/06/15 08:31:41;;;;;;;8.20;3.47;;;;;;;;;;5029404;28;20496;-76
2021/06/15 08:34:08;;;;;;;4.13;3.50;;;;;;;;;;5024407;28;20578;-76
2021/06/15 08:36:36;;;;;;;4.90;4.03;;;;;;;;;;5028339;28;20500;-76
2021/06/15 08:39:04;;;;;;;4.67;3.33;;;;;;;;;;5028468;28;20462;-76
2021/06/15 08:41:31;;;;;;;6.33;3.90;;;;;;;;;;5025892;28;20455;-77
2021/06/15 08:43:59;;;;;;;3.63;3.20;;;;;;;;;;5024985;28;20451;-76
2021/06/15 08:46:26;;;;;;;4.60;3.57;;;;;;;;;;5025735;28;20484;-77
2021/06/15 08:48:55;;;;;;;7.60;3.90;;;;;;;;;;5033471;28;20458;-77
2021/06/15 08:51:22;;;;;;;5.30;4.10;;;;;;;;;;5034485;28;20462;-77
2021/06/15 08:53:51;;;;;;;5.10;4.00;;;;;;;;;;5033340;28;20473;-78
2021/06/15 08:56:23;;;;;;;5.83;3.70;;;;;;;;;;5040331;28;20521;-77
2021/06/15 08:58:59;;;;;;;3.80;3.40;;;;;;;;;;5030855;28;20466;-78
2021/06/15 09:01:26;;;;;;;4.90;3.63;;;;;;;;;;5030715;28;20531;-77
2021/06/15 09:03:55;;;;;;;4.00;3.60;;;;;;;;;;5025272;28;20451;-78
2021/06/15 09:06:22;;;;;;;4.40;3.40;;;;;;;;;;5029227;28;20450;-77
2021/06/15 09:08:53;;;;;;;10.63;4.40;;;;;;;;;;5031742;28;20454;-77
2021/06/15 09:11:20;;;;;;;10.07;4.10;;;;;;;;;;5026214;28;20464;-78
2021/06/15 09:13:48;;;;;;;7.20;3.80;;;;;;;;;;5033906;28;20466;-78
2021/06/15 09:16:23;;;;;;;8.03;3.50;;;;;;;;;;5036526;28;20478;-79
2021/06/15 09:18:51;;;;;;;6.23;3.80;;;;;;;;;;5036802;28;20925;-79
2021/06/15 09:21:35;;;;;;;5.50;3.57;;;;;;;;;;5028776;28;20512;-79
2021/06/15 09:24:06;;;;;;;6.70;3.90;;;;;;;;;;5021244;28;20555;-80
2021/06/15 09:26:48;;;;;;;5.27;3.40;;;;;;;;;;5037208;28;20450;-78
2021/06/15 09:29:17;;;;;;;3.93;3.63;;;;;;;;;;5030795;28;21110;-79
2021/06/15 09:31:52;;;;;;;4.50;3.93;;;;;;;;;;5038983;28;20512;-82
2021/06/15 09:34:19;;;;;;;3.43;3.03;;;;;;;;;;5036531;28;20474;-82
2021/06/15 09:36:46;;;;;;;3.60;3.30;;;;;;;;;;5041434;28;21033;-80
2021/06/15 09:39:15;;;;;;;4.40;3.97;;;;;;;;;;5041972;28;20458;-82
2021/06/15 09:41:42;;;;;;;4.23;3.83;;;;;;;;;;5034408;28;20969;-79
2021/06/15 09:44:13;;;;;;;8.63;3.50;;;;;;;;;;5040364;28;20449;-80
2021/06/15 09:46:45;;;;;;;4.20;3.67;;;;;;;;;;5040602;28;20565;-79
2021/06/15 09:49:13;;;;;;;5.13;3.80;;;;;;;;;;5040302;28;20451;-79
2021/06/15 09:51:41;;;;;;;3.80;3.30;;;;;;;;;;5040293;28;20473;-79
2021/06/15 09:54:09;;;;;;;3.63;3.30;;;;;;;;;;5042023;28;20465;-79
2021/06/15 09:56:41;;;;;;;6.77;3.50;;;;;;;;;;5042347;28;20469;-78
2021/06/15 09:59:08;;;;;;;3.33;3.03;;;;;;;;;;5030451;28;20497;-79
2021/06/15 10:01:38;;;;;;;4.53;3.53;;;;;;;;;;5049892;28;20462;-86
2021/06/15 10:06:54;;;;;;;4.03;3.70;;;;;;;;;;5047018;28;20450;-84
2021/06/15 10:09:26;;;;;;;3.87;3.57;;;;;;;;;;5047816;28;20462;-84
2021/06/15 10:12:02;;;;;;;4.50;3.57;;;;;;;;;;5054116;28;20476;-83
2021/06/15 10:14:30;;;;;;;4.00;3.70;;;;;;;;;;5040401;28;20484;-84
2021/06/15 10:16:58;;;;;;;3.97;3.57;;;;;;;;;;5047213;28;20489;-84
2021/06/15 10:19:40;;;;;;;4.40;4.00;;;;;;;;;;5048620;28;20485;-83
2021/06/15 10:22:36;;;;;;;8.00;4.30;;;;;;;;;;5046044;28;20505;-83
2021/06/15 10:25:13;;;;;;;4.60;3.70;;;;;;;;;;5047613;28;20451;-83
2021/06/15 10:27:43;;;;;;;3.87;3.33;;;;;;;;;;5044213;28;20478;-83
2021/06/15 10:30:16;;;;;;;5.00;4.27;;;;;;;;;;5044467;28;20445;-84
2021/06/15 10:33:05;;;;;;;5.03;3.23;;;;;;;;;;5049561;28;20447;-83
2021/06/15 10:35:34;;;;;;;4.37;3.97;;;;;;;;;;5052389;28;20570;-83
2021/06/15 10:38:02;;;;;;;4.03;3.73;;;;;;;;;;5053697;28;20450;-82
2021/06/15 10:40:42;;;;;;;4.53;4.13;;;;;;;;;;5051456;28;20486;-83
2021/06/15 10:43:12;;;;;;;5.63;4.13;;;;;;;;;;5053537;28;20472;-83
2021/06/15 10:45:40;;;;;;;3.83;3.53;;;;;;;;;;5050570;28;20448;-83
2021/06/15 10:48:26;;;;;;;8.20;3.97;;;;;;;;;;5052298;28;20500;-84
2021/06/15 10:50:55;;;;;;;4.87;3.63;;;;;;;;;;5052104;28;20469;-83
2021/06/15 10:53:34;;;;;;;5.00;4.50;;;;;;;;;;5053959;28;20489;-83
2021/06/15 10:56:04;;;;;;;4.20;3.80;;;;;;;;;;5051311;28;20510;-84
2021/06/15 10:58:50;;;;;;;4.10;3.70;;;;;;;;;;5053363;28;20446;-83
2021/06/15 11:01:20;;;;;;;4.67;3.40;;;;;;;;;;5049178;28;20489;-83
2021/06/15 11:03:49;;;;;;;4.20;3.80;;;;;;;;;;5053079;28;20430;-83
2021/06/15 11:06:18;;;;;;;4.20;3.60;;;;;;;;;;5056227;28;20490;-83
2021/06/15 11:08:45;;;;;;;4.40;3.70;;;;;;;;;;5054630;28;20445;-84
2021/06/15 11:11:20;;;;;;;5.67;4.03;;;;;;;;;;5045070;28;20450;-83
2021/06/15 11:13:49;;;;;;;3.80;3.50;;;;;;;;;;5052261;28;20466;-83
2021/06/15 11:16:26;;;;;;;3.80;3.40;;;;;;;;;;5051499;28;20508;-82
2021/06/15 11:19:12;;;;;;;4.33;3.93;;;;;;;;;;5045213;28;20533;-83
2021/06/15 11:21:47;;;;;;;5.63;4.00;;;;;;;;;;5035541;28;20454;-83
2021/06/15 11:24:20;;;;;;;3.97;3.57;;;;;;;;;;5039648;28;20462;-84
2021/06/15 11:26:50;;;;;;;3.97;3.57;;;;;;;;;;5043595;28;20485;-85
2021/06/15 11:29:29;;;;;;;3.57;3.30;;;;;;;;;;5053758;28;20450;-85
2021/06/15 11:32:12;;;;;;;3.87;3.53;;;;;;;;;;5048251;28;20501;-84
2021/06/15 11:34:45;;;;;;;7.20;4.30;;;;;;;;;;5045023;28;20546;-84
2021/06/15 11:37:24;;;;;;;3.93;3.50;;;;;;;;;;5038947;28;20455;-84
2021/06/15 11:39:54;;;;;;;4.67;3.70;;;;;;;;;;5038979;28;20454;-83
2021/06/15 11:42:26;;;;;;;4.60;3.67;;;;;;;;;;5043792;28;20489;-84
2021/06/15 11:44:56;;;;;;;3.77;3.47;;;;;;;;;;5045133;28;20438;-83
2021/06/15 11:47:29;;;;;;;5.10;3.83;;;;;;;;;;5047885;28;20459;-82
2021/06/15 11:50:31;;;;;;;4.77;3.90;;;;;;;;;;5048905;28;20455;-83
2021/06/15 12:01:52;;;;;;;4.17;3.77;;;;;;;;;;5045309;28;20458;-84
2021/06/15 12:07:38;;;;;;;4.83;3.77;;;;;;;;;;5043848;28;20490;-84
2021/06/15 12:10:25;;;;;;;4.17;3.40;;;;;;;;;;5040201;28;20463;-83
2021/06/15 12:13:01;;;;;;;4.93;3.90;;;;;;;;;;5039367;28;20464;-82
2021/06/15 12:15:43;;;;;;;5.23;3.70;;;;;;;;;;5044886;28;20450;-82
2021/06/15 12:18:14;;;;;;;3.93;3.43;;;;;;;;;;5050997;28;20815;-82
2021/06/15 12:20:44;;;;;;;4.20;3.90;;;;;;;;;;5042967;28;20508;-82
2021/06/15 12:23:25;;;;;;;4.00;3.70;;;;;;;;;;5042150;28;20455;-82
2021/06/15 12:25:55;;;;;;;5.23;3.27;;;;;;;;;;5041477;28;20450;-81
2021/06/15 12:28:24;;;;;;;5.03;3.27;;;;;;;;;;5046324;28;20457;-82
2021/06/15 12:31:10;;;;;;;12.37;8.03;;;;;;;;;;5039621;28;20476;-81
2021/06/15 12:33:39;;;;;;;3.43;3.20;;;;;;;;;;5040187;28;20474;-81
2021/06/15 12:36:08;;;;;;;5.03;3.73;;;;;;;;;;5047080;28;20466;-83
2021/06/15 12:38:38;;;;;;;3.50;3.20;;;;;;;;;;5043099;28;20459;-82
2021/06/15 12:41:08;;;;;;;3.83;3.53;;;;;;;;;;5047303;28;20482;-83
2021/06/15 12:43:36;;;;;;;14.17;4.00;;;;;;;;;;5043696;28;20528;-82
2021/06/15 12:46:10;;;;;;;4.80;4.27;;;;;;;;;;5043829;28;20458;-81
2021/06/15 12:48:44;;;;;;;4.30;3.90;;;;;;;;;;5037650;28;20557;-81
2021/06/15 12:51:13;;;;;;;4.93;3.37;;;;;;;;;;5040516;28;20470;-83
2021/06/15 12:53:46;;;;;;;3.60;3.30;;;;;;;;;;5040064;28;20549;-83
2021/06/15 12:56:19;;;;;;;4.87;3.20;;;;;;;;;;5049084;28;20542;-82
2021/06/15 12:58:46;;;;;;;3.53;3.23;;;;;;;;;;5038431;28;20450;-78
2021/06/15 13:01:14;;;;;;;3.63;3.33;;;;;;;;;;5030002;28;20453;-78
2021/06/15 13:03:43;;;;;;;3.30;3.00;;;;;;;;;;5029811;28;20443;-78
2021/06/15 13:06:14;;;;;;;4.17;3.50;;;;;;;;;;5033024;28;20442;-79
2021/06/15 13:08:41;;;;;;;3.40;3.10;;;;;;;;;;5036748;28;20485;-79
2021/06/15 13:11:12;;;;;;;4.63;3.00;;;;;;;;;;5032751;28;21018;-79
2021/06/15 13:13:53;;;;;;;3.10;2.80;;;;;;;;;;5031684;28;20460;-78
2021/06/15 13:16:20;;;;;;;3.43;3.20;;;;;;;;;;5032624;28;20483;-79
2021/06/15 13:18:58;;;;;;;3.53;3.30;;;;;;;;;;5031317;28;21253;-79
2021/06/15 13:21:26;;;;;;;3.70;3.07;;;;;;;;;;5029756;28;20451;-78
2021/06/15 13:24:06;;;;;;;2.57;2.37;;;;;;;;;;5026530;28;20753;-79
2021/06/15 13:26:33;;;;;;;3.93;2.40;;;;;;;;;;5025925;28;20544;-78
2021/06/15 13:29:02;;;;;;;2.57;2.37;;;;;;;;;;5044077;28;20438;-80
2021/06/15 13:31:29;;;;;;;3.20;2.90;;;;;;;;;;5035313;28;20435;-78
2021/06/15 13:34:03;;;;;;;4.93;3.37;;;;;;;;;;5035418;28;20454;-78
2021/06/15 13:36:30;;;;;;;3.23;2.93;;;;;;;;;;5036282;28;20497;-79
2021/06/15 13:39:07;;;;;;;3.07;2.73;;;;;;;;;;5039256;28;20450;-80
2021/06/15 13:41:35;;;;;;;3.43;2.40;;;;;;;;;;5029417;28;20461;-83
2021/06/15 13:44:03;;;;;;;4.53;3.13;;;;;;;;;;5033899;28;20520;-76
2021/06/15 13:46:31;;;;;;;2.60;2.40;;;;;;;;;;5033728;28;20465;-76
2021/06/15 13:49:00;;;;;;;4.87;2.43;;;;;;;;;;5032933;28;20455;-77
2021/06/15 13:51:27;;;;;;;3.00;2.70;;;;;;;;;;5041702;28;20462;-78
2021/06/15 13:54:01;;;;;;;3.47;2.50;;;;;;;;;;5056205;28;20474;-80
2021/06/15 13:56:30;;;;;;;2.90;2.57;;;;;;;;;;5045188;28;20482;-80
2021/06/15 13:58:59;;;;;;;2.90;2.70;;;;;;;;;;5052017;28;20461;-80
2021/06/15 14:01:28;;;;;;;5.70;2.57;;;;;;;;;;5049883;28;20435;-80
2021/06/15 14:03:58;;;;;;;3.27;2.87;;;;;;;;;;5040486;28;20465;-80
2021/06/15 14:06:25;;;;;;;3.00;2.80;;;;;;;;;;5043412;28;20426;-82
2021/06/15 14:08:55;;;;;;;3.10;2.90;;;;;;;;;;5046591;28;20965;-85
2021/06/15 14:11:22;;;;;;;3.70;2.70;;;;;;;;;;5055620;28;20434;-83
2021/06/15 14:13:50;;;;;;;2.60;2.40;;;;;;;;;;5047066;28;20478;-79
2021/06/15 14:16:18;;;;;;;6.83;2.60;;;;;;;;;;5040038;28;20481;-83
2021/06/15 14:18:48;;;;;;;5.80;2.50;;;;;;;;;;5044239;28;20548;-83
2021/06/15 14:21:15;;;;;;;3.50;2.77;;;;;;;;;;5043898;28;20452;-83
2021/06/15 14:23:43;;;;;;;2.47;2.30;;;;;;;;;;5040187;28;20446;-83
2021/06/15 14:26:10;;;;;;;3.37;2.50;;;;;;;;;;5042988;28;20525;-83
2021/06/15 14:28:44;;;;;;;3.37;2.50;;;;;;;;;;5040519;28;20512;-83
2021/06/15 14:31:12;;;;;;;4.20;2.20;;;;;;;;;;5039788;28;20471;-84
2021/06/15 14:33:41;;;;;;;2.47;2.27;;;;;;;;;;5042633;28;20454;-83
2021/06/15 14:36:14;;;;;;;3.60;2.43;;;;;;;;;;5045775;28;20680;-84
2021/06/15 14:38:42;;;;;;;2.60;2.33;;;;;;;;;;5052422;28;20512;-84
2021/06/15 14:41:11;;;;;;;4.30;2.53;;;;;;;;;;5051705;28;20458;-84
2021/06/15 14:43:41;;;;;;;2.93;1.97;;;;;;;;;;5046441;28;20464;-83
2021/06/15 14:46:09;;;;;;;1.90;1.67;;;;;;;;;;5041474;28;20469;-83
2021/06/15 14:49:01;;;;;;;2.80;2.40;;;;;;;;;;5045405;28;20461;-84
2021/06/15 14:51:30;;;;;;;2.43;2.23;;;;;;;;;;5042753;28;20470;-82
2021/06/15 14:54:05;;;;;;;2.00;1.90;;;;;;;;;;5053543;28;20462;-85
2021/06/15 14:56:33;;;;;;;7.13;2.70;;;;;;;;;;5048850;28;20478;-84
2021/06/15 14:59:00;;;;;;;2.23;1.90;;;;;;;;;;5044550;28;20446;-84
2021/06/15 15:01:29;;;;;;;1.93;1.83;;;;;;;;;;5044281;28;20573;-83
2021/06/15 15:03:57;;;;;;;3.40;2.63;;;;;;;;;;5038805;28;20471;-84
2021/06/15 15:06:26;;;;;;;2.27;2.17;;;;;;;;;;5051985;28;20463;-83
2021/06/15 15:08:55;;;;;;;2.90;2.47;;;;;;;;;;5041393;28;20453;-82
2021/06/15 15:11:23;;;;;;;2.33;2.13;;;;;;;;;;5042709;28;20463;-84
2021/06/15 15:13:50;;;;;;;2.70;2.20;;;;;;;;;;5041470;28;20465;-83